createdAt,value
2022-08-17T00:02:26.930Z,23.85
2022-08-17T00:05:33.381Z,23.97
2022-08-17T00:08:40.571Z,23.98
2022-08-17T00:12:43.786Z,23.97
2022-08-17T00:15:08.273Z,23.97
2022-08-17T00:19:05.818Z,23.96
2022-08-17T00:22:33.213Z,23.90
2022-08-17T00:25:00.870Z,23.79
2022-08-17T00:28:04.261Z,23.76
2022-08-17T00:31:08.709Z,23.67
2022-08-17T00:34:10.930Z,23.66
2022-08-17T00:37:13.485Z,23.69
2022-08-17T00:40:16.015Z,23.69
2022-08-17T00:43:41.779Z,23.59
2022-08-17T00:46:44.809Z,23.56
2022-08-17T00:49:47.301Z,23.54
2022-08-17T00:52:56.359Z,23.67
2022-08-17T00:56:03.208Z,23.64
2022-08-17T00:59:08.435Z,23.60
2022-08-17T01:02:18.693Z,23.53
2022-08-17T01:05:25.566Z,23.47
2022-08-17T01:08:31.058Z,23.55
2022-08-17T01:11:35.366Z,23.41
2022-08-17T01:14:39.534Z,23.50
2022-08-17T01:17:43.297Z,23.49
2022-08-17T01:20:52.058Z,23.51
2022-08-17T01:23:54.974Z,23.49
2022-08-17T01:26:57.686Z,23.46
2022-08-17T01:30:57.902Z,23.46
2022-08-17T01:33:30.228Z,23.47
2022-08-17T01:36:32.572Z,23.44
2022-08-17T01:39:52.568Z,23.30
2022-08-17T01:43:03.323Z,23.36
2022-08-17T01:46:06.040Z,23.32
2022-08-17T01:49:11.051Z,23.33
2022-08-17T01:52:13.763Z,23.31
2022-08-17T01:55:23.413Z,23.30
2022-08-17T01:58:28.432Z,23.25
2022-08-17T02:01:33.676Z,23.15
2022-08-17T02:04:36.668Z,23.24
2022-08-17T02:07:55.982Z,23.19
2022-08-17T02:11:11.637Z,23.19
2022-08-17T02:14:14.566Z,23.08
2022-08-17T02:17:17.282Z,23.16
2022-08-17T02:20:41.724Z,23.14
2022-08-17T02:23:46.456Z,23.12
2022-08-17T02:26:48.731Z,22.96
2022-08-17T02:29:51.338Z,23.08
2022-08-17T02:32:54.472Z,23.07
2022-08-17T02:35:57.906Z,23.08
2022-08-17T02:39:02.419Z,23.05
2022-08-17T02:42:05.694Z,23.11
2022-08-17T02:45:11.383Z,23.12
2022-08-17T02:48:13.916Z,23.00
2022-08-17T02:51:33.211Z,23.00
2022-08-17T02:54:41.727Z,23.02
2022-08-17T02:57:45.604Z,23.15
2022-08-17T03:00:48.547Z,23.14
2022-08-17T03:03:50.731Z,23.14
2022-08-17T03:06:53.279Z,23.08
2022-08-17T03:09:55.500Z,23.10
2022-08-17T03:12:58.265Z,22.95
2022-08-17T03:16:00.504Z,23.06
2022-08-17T03:19:03.085Z,22.93
2022-08-17T03:22:37.337Z,23.01
2022-08-17T03:25:37.379Z,22.85
2022-08-17T03:28:41.040Z,22.92
2022-08-17T03:31:43.542Z,22.79
2022-08-17T03:34:45.889Z,22.71
2022-08-17T03:38:00.890Z,22.82
2022-08-17T03:41:05.901Z,22.70
2022-08-17T03:44:08.412Z,22.71
2022-08-17T03:47:29.213Z,22.81
2022-08-17T03:50:50.179Z,22.77
2022-08-17T03:54:17.195Z,22.66
2022-08-17T03:57:20.000Z,22.76
2022-08-17T04:00:22.333Z,22.76
2022-08-17T04:03:25.035Z,22.62
2022-08-17T04:06:27.279Z,22.74
2022-08-17T04:09:29.846Z,22.63
2022-08-17T04:12:45.703Z,22.70
2022-08-17T04:15:49.242Z,22.71
2022-08-17T04:18:52.257Z,22.68
2022-08-17T04:21:54.994Z,22.58
2022-08-17T04:24:57.294Z,22.57
2022-08-17T04:28:02.681Z,22.56
2022-08-17T04:31:05.173Z,22.68
2022-08-17T04:34:10.081Z,22.57
2022-08-17T04:37:12.394Z,22.61
2022-08-17T04:40:33.986Z,22.54
2022-08-17T04:43:38.184Z,22.68
2022-08-17T04:46:41.239Z,22.58
2022-08-17T04:49:43.513Z,22.61
2022-08-17T04:52:46.618Z,22.76
2022-08-17T04:55:51.353Z,22.66
2022-08-17T04:58:57.766Z,22.77
2022-08-17T05:02:00.029Z,22.73
2022-08-17T05:05:02.580Z,22.75
2022-08-17T05:08:07.701Z,22.75
2022-08-17T05:11:10.422Z,22.73
2022-08-17T05:14:13.237Z,22.78
2022-08-17T05:17:15.798Z,22.86
2022-08-17T05:20:18.122Z,22.96
2022-08-17T05:23:23.065Z,22.86
2022-08-17T05:26:27.557Z,22.91
2022-08-17T05:29:35.567Z,23.09
2022-08-17T05:32:40.380Z,23.03
2022-08-17T05:35:49.315Z,23.10
2022-08-17T05:38:51.573Z,23.26
2022-08-17T05:41:54.187Z,23.34
2022-08-17T05:44:59.548Z,23.44
2022-08-17T05:48:02.856Z,23.54
2022-08-17T05:51:23.665Z,23.50
2022-08-17T05:54:41.667Z,23.74
2022-08-17T05:58:02.440Z,23.87
2022-08-17T06:01:20.334Z,23.98
2022-08-17T06:04:30.942Z,24.07
2022-08-17T06:07:39.016Z,24.19
2022-08-17T06:11:11.173Z,24.30
2022-08-17T06:14:43.553Z,24.42
2022-08-17T06:17:46.535Z,24.53
2022-08-17T06:21:00.411Z,24.63
2022-08-17T06:24:27.536Z,24.69
2022-08-17T06:27:40.613Z,24.75
2022-08-17T06:31:00.546Z,24.85
2022-08-17T06:34:08.512Z,25.12
2022-08-17T06:37:26.553Z,25.33
2022-08-17T06:40:37.569Z,25.47
2022-08-17T06:43:49.142Z,25.68
2022-08-17T06:46:56.211Z,25.85
2022-08-17T06:50:04.827Z,25.94
2022-08-17T06:53:16.629Z,26.21
2022-08-17T06:56:57.740Z,26.33
2022-08-17T07:00:07.983Z,26.60
2022-08-17T07:03:16.400Z,26.89
2022-08-17T07:06:22.189Z,27.04
2022-08-17T07:09:35.840Z,27.10
2022-08-17T07:12:42.888Z,27.42
2022-08-17T07:15:51.809Z,27.60
2022-08-17T07:18:59.378Z,27.66
2022-08-17T07:22:14.296Z,27.87
2022-08-17T07:25:21.616Z,28.18
2022-08-17T07:28:25.298Z,28.55
2022-08-17T07:31:30.788Z,28.77
2022-08-17T07:35:15.467Z,29.23
2022-08-17T07:38:26.754Z,29.49
2022-08-17T07:41:57.555Z,29.86
2022-08-17T07:45:22.916Z,30.30
2022-08-17T07:48:27.409Z,30.60
2022-08-17T07:51:33.421Z,31.11
2022-08-17T07:54:39.336Z,31.29
2022-08-17T07:57:41.883Z,31.59
2022-08-17T08:01:15.291Z,31.61
2022-08-17T08:08:06.043Z,32.94
2022-08-17T08:11:12.817Z,33.38
2022-08-17T08:14:38.583Z,33.66
2022-08-17T08:17:57.696Z,34.11
2022-08-17T08:21:33.258Z,34.34
2022-08-17T08:24:47.994Z,34.87
2022-08-17T08:28:09.075Z,35.11
2022-08-17T08:31:57.218Z,35.00
2022-08-17T08:35:26.875Z,35.41
2022-08-17T08:38:49.427Z,35.00
2022-08-17T08:42:07.739Z,35.47
2022-08-17T08:45:18.363Z,35.97
2022-08-17T08:48:53.678Z,36.28
2022-08-17T08:51:57.994Z,36.89
2022-08-17T08:55:35.609Z,37.28
2022-08-17T08:59:02.192Z,37.93
2022-08-17T09:02:16.770Z,37.69
2022-08-17T09:05:31.423Z,37.93
2022-08-17T09:08:39.598Z,37.66
2022-08-17T09:12:02.931Z,38.03
2022-08-17T09:15:40.467Z,38.44
2022-08-17T09:19:03.121Z,39.09
2022-08-17T09:22:20.451Z,39.07
2022-08-17T09:25:29.066Z,39.63
2022-08-17T09:28:38.497Z,39.80
2022-08-17T09:31:55.102Z,39.74
2022-08-17T09:35:03.745Z,40.01
2022-08-17T09:38:35.237Z,40.02
2022-08-17T09:42:08.042Z,40.54
2022-08-17T09:45:39.950Z,40.62
2022-08-17T09:48:50.295Z,40.27
2022-08-17T09:52:03.308Z,40.60
2022-08-17T09:55:06.524Z,40.99
2022-08-17T09:58:22.915Z,41.02
2022-08-17T10:01:31.869Z,41.37
2022-08-17T10:05:13.580Z,41.64
2022-08-17T10:08:27.659Z,41.25
2022-08-17T10:11:51.761Z,41.67
2022-08-17T10:15:08.042Z,40.56
2022-08-17T10:18:49.606Z,41.26
2022-08-17T10:22:32.411Z,41.41
2022-08-17T10:25:57.002Z,40.96
2022-08-17T10:29:13.332Z,40.84
2022-08-17T10:32:32.388Z,40.62
2022-08-17T10:35:43.587Z,38.82
2022-08-17T10:38:49.734Z,39.12
2022-08-17T10:41:57.214Z,39.87
2022-08-17T10:45:11.402Z,40.57
2022-08-17T10:48:39.267Z,40.43
2022-08-17T10:52:00.053Z,40.95
2022-08-17T10:55:08.984Z,41.25
2022-08-17T10:58:22.235Z,41.70
2022-08-17T11:06:13.659Z,41.51
2022-08-17T11:09:54.420Z,41.50
2022-08-17T11:13:04.291Z,41.63
2022-08-17T11:16:41.346Z,41.09
2022-08-17T11:20:16.013Z,40.81
2022-08-17T11:23:40.705Z,40.32
2022-08-17T11:26:59.047Z,39.96
2022-08-17T11:30:35.944Z,39.71
2022-08-17T11:33:41.285Z,40.14
2022-08-17T11:37:11.237Z,40.08
2022-08-17T11:40:36.011Z,40.18
2022-08-17T11:44:16.863Z,40.43
2022-08-17T11:48:16.056Z,40.27
2022-08-17T11:51:34.789Z,40.46
2022-08-17T11:54:47.142Z,40.53
2022-08-17T11:58:26.336Z,40.85
2022-08-17T12:01:31.881Z,40.97
2022-08-17T12:04:35.954Z,40.89
2022-08-17T12:07:52.032Z,40.67
2022-08-17T12:11:00.592Z,40.27
2022-08-17T12:14:03.838Z,38.94
2022-08-17T12:17:12.221Z,38.59
2022-08-17T12:20:42.096Z,38.99
2022-08-17T12:24:06.666Z,39.28
2022-08-17T12:27:11.602Z,39.56
2022-08-17T12:30:19.435Z,39.53
2022-08-17T12:33:28.377Z,39.37
2022-08-17T12:36:33.087Z,39.05
2022-08-17T12:39:35.480Z,39.48
2022-08-17T12:42:41.442Z,39.45
2022-08-17T12:45:44.201Z,39.87
2022-08-17T12:48:58.821Z,39.89
2022-08-17T12:52:13.511Z,39.05
2022-08-17T12:55:24.626Z,38.88
2022-08-17T12:58:32.505Z,39.12
2022-08-17T13:01:38.890Z,39.27
2022-08-17T13:04:41.213Z,39.62
2022-08-17T13:07:46.442Z,39.85
2022-08-17T13:11:01.316Z,39.96
2022-08-17T13:14:10.533Z,39.72
2022-08-17T13:17:13.868Z,39.96
2022-08-17T13:20:16.443Z,39.57
2022-08-17T13:23:20.542Z,39.31
2022-08-17T13:26:47.709Z,38.91
2022-08-17T13:29:55.809Z,38.55
2022-08-17T13:32:59.013Z,38.09
2022-08-17T13:36:08.809Z,37.48
2022-08-17T13:39:24.412Z,37.08
2022-08-17T13:42:52.001Z,36.77
2022-08-17T13:46:08.174Z,36.38
2022-08-17T13:49:12.007Z,36.24
2022-08-17T13:52:33.078Z,36.11
2022-08-17T13:55:36.007Z,36.39
2022-08-17T13:58:52.260Z,36.42
2022-08-17T14:01:55.328Z,36.54
2022-08-17T14:04:58.524Z,36.80
2022-08-17T14:08:07.036Z,36.89
2022-08-17T14:11:10.909Z,37.02
2022-08-17T14:14:14.332Z,37.30
2022-08-17T14:17:16.967Z,37.12
2022-08-17T14:20:22.141Z,37.15
2022-08-17T14:23:25.052Z,37.08
2022-08-17T14:26:27.595Z,37.14
2022-08-17T14:29:32.156Z,37.01
2022-08-17T14:32:37.264Z,36.84
2022-08-17T14:35:40.782Z,36.66
2022-08-17T14:38:44.107Z,36.58
2022-08-17T14:41:46.985Z,36.42
2022-08-17T14:44:49.060Z,36.54
2022-08-17T14:47:52.130Z,36.50
2022-08-17T14:50:55.056Z,36.43
2022-08-17T14:53:57.663Z,36.37
2022-08-17T14:57:04.634Z,36.26
2022-08-17T15:00:22.802Z,36.29
2022-08-17T15:03:24.952Z,36.16
2022-08-17T15:06:27.514Z,36.08
2022-08-17T15:09:30.619Z,36.01
2022-08-17T15:12:39.440Z,35.74
2022-08-17T15:15:41.704Z,35.50
2022-08-17T15:18:44.247Z,35.41
2022-08-17T15:21:46.967Z,35.32
2022-08-17T15:24:49.647Z,35.30
2022-08-17T15:27:52.908Z,35.20
2022-08-17T15:30:55.651Z,35.11
2022-08-17T15:33:58.457Z,34.85
2022-08-17T15:37:01.066Z,34.84
2022-08-17T15:40:04.961Z,34.78
2022-08-17T15:43:17.273Z,34.58
2022-08-17T15:46:22.543Z,34.44
2022-08-17T15:49:25.053Z,34.44
2022-08-17T15:52:30.013Z,34.31
2022-08-17T15:55:34.072Z,34.17
2022-08-17T15:58:46.641Z,34.10
2022-08-17T16:03:15.877Z,34.04
2022-08-17T16:05:15.933Z,33.99
2022-08-17T16:08:21.590Z,33.95
2022-08-17T16:11:24.442Z,33.90
2022-08-17T16:14:33.706Z,33.72
2022-08-17T16:17:39.932Z,33.66
2022-08-17T16:20:44.034Z,33.66
2022-08-17T16:23:49.512Z,33.52
2022-08-17T16:26:51.814Z,33.29
2022-08-17T16:29:54.353Z,33.25
2022-08-17T16:33:00.594Z,33.15
2022-08-17T16:36:03.703Z,33.21
2022-08-17T16:39:05.953Z,33.04
2022-08-17T16:42:41.581Z,32.90
2022-08-17T16:45:47.483Z,32.95
2022-08-17T16:48:52.517Z,32.86
2022-08-17T16:52:01.547Z,32.76
2022-08-17T16:55:06.207Z,32.60
2022-08-17T16:58:08.939Z,32.54
2022-08-17T17:01:11.709Z,32.40
2022-08-17T17:04:17.249Z,32.33
2022-08-17T17:07:37.013Z,32.24
2022-08-17T17:11:03.778Z,32.05
2022-08-17T17:14:16.929Z,32.06
2022-08-17T17:17:28.302Z,31.98
2022-08-17T17:20:42.704Z,31.90
2022-08-17T17:24:03.495Z,31.79
2022-08-17T17:27:47.158Z,31.63
2022-08-17T17:31:11.177Z,31.65
2022-08-17T17:34:16.581Z,31.56
2022-08-17T17:37:26.533Z,31.48
2022-08-17T17:40:38.201Z,31.30
2022-08-17T17:43:41.358Z,31.31
2022-08-17T17:46:50.454Z,31.15
2022-08-17T17:49:52.829Z,31.07
2022-08-17T17:53:02.163Z,31.12
2022-08-17T17:56:34.317Z,31.03
2022-08-17T18:00:08.297Z,30.95
2022-08-17T18:03:32.539Z,30.87
2022-08-17T18:07:00.318Z,30.78
2022-08-17T18:10:29.783Z,30.71
2022-08-17T18:14:14.303Z,30.62
2022-08-17T18:17:18.212Z,30.52
2022-08-17T18:20:32.485Z,30.35
2022-08-17T18:23:51.033Z,30.41
2022-08-17T18:26:56.609Z,30.34
2022-08-17T18:30:28.842Z,30.27
2022-08-17T18:33:31.554Z,30.11
2022-08-17T18:36:39.849Z,30.03
2022-08-17T18:39:42.468Z,30.09
2022-08-17T18:43:27.005Z,29.95
2022-08-17T18:46:35.966Z,29.97
2022-08-17T18:49:42.018Z,29.91
2022-08-17T18:52:47.295Z,29.83
2022-08-17T18:55:51.880Z,29.67
2022-08-17T18:59:24.681Z,29.70
2022-08-17T19:05:53.707Z,29.58
2022-08-17T19:08:56.053Z,29.40
2022-08-17T19:12:01.785Z,29.46
2022-08-17T19:15:04.492Z,29.38
2022-08-17T19:18:18.639Z,29.24
2022-08-17T19:21:45.067Z,29.31
2022-08-17T19:24:51.014Z,29.19
2022-08-17T19:28:21.591Z,29.24
2022-08-17T19:31:28.753Z,29.24
2022-08-17T19:34:34.736Z,29.21
2022-08-17T19:37:51.873Z,29.19
2022-08-17T19:41:16.028Z,29.15
2022-08-17T19:44:21.574Z,29.09
2022-08-17T19:47:54.446Z,29.04
2022-08-17T19:51:12.052Z,28.97
2022-08-17T19:54:35.262Z,28.80
2022-08-17T19:57:37.814Z,28.88
2022-08-17T20:00:47.865Z,28.81
2022-08-17T20:03:59.781Z,28.77
2022-08-17T20:07:19.616Z,28.73
2022-08-17T20:10:54.914Z,28.70
2022-08-17T20:14:32.852Z,28.65
2022-08-17T20:17:39.291Z,28.63
2022-08-17T20:20:47.007Z,28.47
2022-08-17T20:24:00.548Z,28.57
2022-08-17T20:27:31.573Z,28.43
2022-08-17T20:30:42.682Z,28.49
2022-08-17T20:33:44.968Z,28.42
2022-08-17T20:37:08.905Z,28.27
2022-08-17T20:40:14.482Z,28.34
2022-08-17T20:43:34.941Z,28.28
2022-08-17T20:47:03.723Z,28.20
2022-08-17T20:50:15.083Z,28.00
2022-08-17T20:53:53.523Z,28.05
2022-08-17T20:56:58.174Z,27.98
2022-08-17T21:00:17.684Z,27.92
2022-08-17T21:03:22.775Z,27.83
2022-08-17T21:06:27.847Z,27.74
2022-08-17T21:09:31.495Z,27.52
2022-08-17T21:12:48.146Z,27.60
2022-08-17T21:16:08.094Z,27.53
2022-08-17T21:19:19.157Z,27.47
2022-08-17T21:22:40.643Z,27.36
2022-08-17T21:25:58.183Z,27.35
2022-08-17T21:29:29.512Z,27.30
2022-08-17T21:32:37.565Z,27.27
2022-08-17T21:35:59.578Z,27.07
2022-08-17T21:39:10.069Z,27.01
2022-08-17T21:42:12.820Z,27.10
2022-08-17T21:45:35.089Z,26.93
2022-08-17T21:48:48.332Z,27.05
2022-08-17T21:51:55.018Z,27.00
2022-08-17T21:55:02.351Z,27.00
2022-08-17T21:58:22.282Z,26.82
2022-08-17T22:01:31.866Z,26.95
2022-08-17T22:04:34.384Z,26.78
2022-08-17T22:07:51.124Z,26.87
2022-08-17T22:11:01.007Z,26.67
